Time;durP1;ratioP1;P1;durP2;ratioP2;P2;SDS_P1;SDS_P2;PMS_P1;PMS_P2;Temp;Humidity;BMP_temperature;BMP_pressure;BME280_temperature;BME280_humidity;BME280_pressure;Samples;Min_cycle;Max_cycle;Signal;HPM_P1;HPM_P2
2023/10/02 00:01:58;;;;;;;1.73;1.63;;;;;12.60;96762.00;;;;5114237;28;20274;-61
2023/10/02 00:04:26;;;;;;;2.10;1.97;;;;;12.60;96761.00;;;;5114660;28;20258;-62
2023/10/02 00:07:06;;;;;;;1.53;1.43;;;;;12.70;96757.00;;;;5113995;28;20570;-61
2023/10/02 00:09:35;;;;;;;3.50;3.20;;;;;12.70;96758.00;;;;5114012;28;20182;-62
2023/10/02 00:12:11;;;;;;;4.00;2.30;;;;;12.70;96752.00;;;;5114003;28;20233;-61
2023/10/02 00:14:38;;;;;;;5.50;2.53;;;;;12.70;96746.00;;;;5114130;28;20251;-61
2023/10/02 00:17:08;;;;;;;2.63;1.60;;;;;12.70;96718.00;;;;5113817;28;20195;-61
2023/10/02 00:19:37;;;;;;;2.13;1.93;;;;;12.60;96744.00;;;;5113856;28;20271;-62
2023/10/02 00:22:07;;;;;;;2.17;1.97;;;;;12.60;96746.00;;;;5113801;28;20216;-61
2023/10/02 00:24:37;;;;;;;1.17;1.17;;;;;12.70;96754.00;;;;5113918;28;20227;-61
2023/10/02 00:27:06;;;;;;;1.70;1.60;;;;;12.60;96748.00;;;;5113840;28;20534;-61
2023/10/02 00:29:34;;;;;;;1.43;1.40;;;;;12.40;96749.00;;;;5113931;28;20545;-61
2023/10/02 00:32:10;;;;;;;4.70;2.33;;;;;12.30;96746.00;;;;5113353;28;20222;-61
2023/10/02 00:34:41;;;;;;;2.20;1.47;;;;;12.20;96749.00;;;;5113881;28;20197;-61
2023/10/02 00:37:13;;;;;;;5.40;1.77;;;;;12.30;96734.00;;;;5113648;28;20186;-61
2023/10/02 00:39:47;;;;;;;1.60;1.40;;;;;12.20;96745.00;;;;5113739;28;20186;-61
2023/10/02 00:42:24;;;;;;;1.23;1.20;;;;;12.20;96732.00;;;;5113836;28;20213;-61
2023/10/02 00:44:52;;;;;;;3.30;1.27;;;;;12.30;96743.00;;;;5113689;28;20200;-61
2023/10/02 00:47:47;;;;;;;3.60;2.17;;;;;12.20;96740.00;;;;5113820;28;20258;-62
2023/10/02 00:50:19;;;;;;;6.30;2.87;;;;;12.30;96744.00;;;;5114148;28;20178;-62
2023/10/02 00:52:56;;;;;;;1.60;1.50;;;;;12.20;96734.00;;;;5113632;28;20232;-62
2023/10/02 00:55:26;;;;;;;1.60;1.50;;;;;12.30;96736.00;;;;5114065;28;20197;-62
2023/10/02 00:57:56;;;;;;;1.70;1.60;;;;;12.20;96727.00;;;;5113503;28;20186;-62
2023/10/02 01:00:35;;;;;;;2.27;1.37;;;;;12.20;96733.00;;;;5113509;28;20786;-61
2023/10/02 01:03:04;;;;;;;1.67;1.57;;;;;12.20;96731.00;;;;5113730;28;20214;-62
2023/10/02 01:05:50;;;;;;;2.07;1.90;;;;;12.20;96727.00;;;;5113331;28;20269;-61
2023/10/02 01:08:42;;;;;;;1.50;1.47;;;;;12.10;96716.00;;;;5113449;28;20174;-62
2023/10/02 01:11:13;;;;;;;8.67;1.70;;;;;12.20;96721.00;;;;5113403;28;20218;-62
2023/10/02 01:13:41;;;;;;;8.60;2.20;;;;;12.20;96720.00;;;;5112170;28;20187;-62
2023/10/02 01:16:13;;;;;;;0.93;0.93;;;;;12.20;96727.00;;;;5113267;28;20247;-61
2023/10/02 01:18:41;;;;;;;2.80;2.47;;;;;12.10;96714.00;;;;5113193;28;20183;-62
2023/10/02 01:21:11;;;;;;;1.37;1.27;;;;;12.10;96709.00;;;;5113589;28;20206;-62
2023/10/02 01:24:06;;;;;;;2.90;2.67;;;;;12.10;96716.00;;;;5113352;28;20273;-61
2023/10/02 01:26:36;;;;;;;1.73;1.33;;;;;12.10;96710.00;;;;5113419;28;20206;-62
2023/10/02 01:29:05;;;;;;;1.50;1.47;;;;;12.20;96716.00;;;;5113464;28;20191;-61
2023/10/02 01:31:35;;;;;;;2.87;2.63;;;;;11.90;96707.00;;;;5112985;28;20221;-62
2023/10/02 01:34:04;;;;;;;2.43;2.23;;;;;11.90;96703.00;;;;5113398;28;20194;-62
2023/10/02 01:36:32;;;;;;;2.97;2.77;;;;;12.00;96712.00;;;;5111823;28;20221;-61
2023/10/02 01:39:10;;;;;;;1.67;1.57;;;;;12.00;96702.00;;;;5113848;28;20658;-62
2023/10/02 01:41:37;;;;;;;1.80;1.70;;;;;11.90;96710.00;;;;5116799;28;20232;-61
2023/10/02 01:44:10;;;;;;;1.97;1.87;;;;;12.00;96702.00;;;;5115416;28;20234;-61
2023/10/02 01:46:49;;;;;;;1.73;1.63;;;;;11.80;96705.00;;;;5116776;27;20193;-62
2023/10/02 01:49:25;;;;;;;2.00;1.90;;;;;11.60;96701.00;;;;5116614;28;20186;-61
2023/10/02 01:51:55;;;;;;;2.37;2.17;;;;;11.40;96698.00;;;;5116922;28;20218;-62
2023/10/02 01:54:26;;;;;;;1.83;1.60;;;;;11.40;96699.00;;;;5115472;28;20220;-62
2023/10/02 01:56:55;;;;;;;1.17;1.17;;;;;11.50;96701.00;;;;5116433;28;20205;-61
2023/10/02 01:59:24;;;;;;;2.87;2.43;;;;;11.50;96700.00;;;;5116535;28;20218;-62
2023/10/02 02:01:54;;;;;;;1.17;1.10;;;;;11.50;96703.00;;;;5116377;28;20230;-61
2023/10/02 02:04:21;;;;;;;2.73;1.43;;;;;11.50;96695.00;;;;5116241;28;20556;-61
2023/10/02 02:06:56;;;;;;;2.70;2.50;;;;;11.50;96694.00;;;;5116399;28;20189;-62
2023/10/02 02:09:30;;;;;;;2.03;1.83;;;;;11.50;96696.00;;;;5116395;28;20707;-61
2023/10/02 02:12:10;;;;;;;2.80;1.87;;;;;11.60;96686.00;;;;5116394;28;20268;-62
2023/10/02 02:14:41;;;;;;;1.10;1.10;;;;;11.60;96688.00;;;;5115393;28;20193;-61
2023/10/02 02:17:10;;;;;;;1.30;1.23;;;;;11.70;96698.00;;;;5116462;28;20559;-61
2023/10/02 02:19:44;;;;;;;1.30;1.20;;;;;11.70;96693.00;;;;5116110;28;20193;-61
2023/10/02 02:22:12;;;;;;;2.60;2.03;;;;;11.70;96661.00;;;;5116493;28;20551;-62
2023/10/02 02:24:41;;;;;;;2.20;2.07;;;;;11.60;96700.00;;;;5114631;28;20198;-62
2023/10/02 02:27:08;;;;;;;3.47;2.90;;;;;11.40;96691.00;;;;5116380;28;20551;-61
2023/10/02 02:29:36;;;;;;;1.67;1.57;;;;;11.20;96689.00;;;;5115925;28;20201;-62
2023/10/02 02:32:06;;;;;;;2.97;2.67;;;;;11.30;96697.00;;;;5115623;28;20222;-61
2023/10/02 02:34:34;;;;;;;2.67;1.60;;;;;11.30;96684.00;;;;5115715;28;20194;-60
2023/10/02 02:37:01;;;;;;;1.37;1.37;;;;;11.30;96701.00;;;;5115828;28;20210;-62
2023/10/02 02:39:28;;;;;;;2.30;2.20;;;;;11.20;96693.00;;;;5115488;28;20243;-61
2023/10/02 02:42:18;;;;;;;1.37;1.27;;;;;11.20;96692.00;;;;5115461;28;20233;-61
2023/10/02 02:44:47;;;;;;;3.77;2.57;;;;;11.30;96692.00;;;;5115697;28;20181;-61
2023/10/02 02:47:16;;;;;;;2.77;1.87;;;;;11.30;96687.00;;;;5115695;28;20209;-61
2023/10/02 02:49:51;;;;;;;3.93;2.03;;;;;11.30;96686.00;;;;5115563;27;20196;-61
2023/10/02 02:52:21;;;;;;;6.60;2.13;;;;;11.10;96687.00;;;;5115626;28;20687;-61
2023/10/02 02:54:52;;;;;;;2.10;1.97;;;;;11.10;96681.00;;;;5115500;28;20209;-61
2023/10/02 02:57:25;;;;;;;1.53;1.50;;;;;11.30;96686.00;;;;5115139;28;20236;-61
2023/10/02 03:00:24;;;;;;;1.33;1.30;;;;;11.30;96681.00;;;;5115378;28;20190;-61
2023/10/02 03:02:44;;;;;;;5.00;2.93;;;;;11.30;96684.00;;;;5115033;28;20293;-61
2023/10/02 03:05:12;;;;;;;2.13;2.03;;;;;11.30;96684.00;;;;5115303;28;20282;-61
2023/10/02 03:07:40;;;;;;;11.70;2.00;;;;;11.40;96680.00;;;;5115212;28;20342;-60
2023/10/02 03:10:12;;;;;;;1.93;1.73;;;;;11.40;96675.00;;;;5115009;28;20194;-60
2023/10/02 03:12:45;;;;;;;1.37;1.37;;;;;11.50;96671.00;;;;5115392;28;20213;-61
2023/10/02 03:15:18;;;;;;;4.50;1.73;;;;;11.50;96682.00;;;;5113631;28;20235;-61
2023/10/02 03:17:46;;;;;;;1.93;1.83;;;;;11.40;96681.00;;;;5115232;28;20541;-61
2023/10/02 03:20:23;;;;;;;3.67;2.20;;;;;11.30;96684.00;;;;5115426;27;20190;-61
2023/10/02 03:22:53;;;;;;;1.93;1.80;;;;;11.20;96677.00;;;;5115011;28;20719;-60
2023/10/02 03:25:40;;;;;;;1.70;1.37;;;;;11.30;96677.00;;;;5114972;28;20218;-61
2023/10/02 03:28:27;;;;;;;11.13;2.43;;;;;11.30;96672.00;;;;5114880;28;20182;-61
2023/10/02 03:30:54;;;;;;;1.63;1.60;;;;;11.30;96676.00;;;;5114234;28;20178;-61
2023/10/02 03:33:22;;;;;;;1.13;1.13;;;;;11.20;96678.00;;;;5114637;27;20190;-61
2023/10/02 03:35:58;;;;;;;2.97;2.73;;;;;11.10;96676.00;;;;5114404;28;20284;-61
2023/10/02 03:38:27;;;;;;;1.67;1.57;;;;;11.00;96682.00;;;;5114960;28;20206;-61
2023/10/02 03:40:57;;;;;;;1.90;1.60;;;;;11.00;96679.00;;;;5114509;28;20623;-61
2023/10/02 03:43:43;;;;;;;1.63;1.53;;;;;10.90;96677.00;;;;5114636;28;20224;-61
2023/10/02 03:46:16;;;;;;;1.67;1.57;;;;;10.80;96679.00;;;;5114235;28;20174;-61
2023/10/02 03:48:50;;;;;;;1.83;1.73;;;;;10.80;96690.00;;;;5114693;28;20629;-61
2023/10/02 03:51:35;;;;;;;2.20;2.00;;;;;10.80;96686.00;;;;5114618;28;20227;-61
2023/10/02 03:54:21;;;;;;;0.93;0.93;;;;;10.90;96688.00;;;;5114531;28;20182;-61
2023/10/02 03:56:49;;;;;;;2.10;1.90;;;;;10.70;96694.00;;;;5114014;28;20213;-62
2023/10/02 03:59:21;;;;;;;1.87;1.77;;;;;10.80;96691.00;;;;5114750;28;20194;-61
2023/10/02 04:01:50;;;;;;;2.67;2.37;;;;;10.70;96688.00;;;;5113680;28;20313;-61
2023/10/02 04:04:21;;;;;;;1.67;1.57;;;;;10.70;96689.00;;;;5113987;28;20231;-61
2023/10/02 04:06:53;;;;;;;2.40;2.10;;;;;10.70;96690.00;;;;5114279;28;20239;-61
2023/10/02 04:09:25;;;;;;;1.43;1.33;;;;;10.50;96690.00;;;;5112670;28;20213;-61
2023/10/02 04:11:54;;;;;;;3.67;2.00;;;;;10.30;96695.00;;;;5113954;28;20300;-61
2023/10/02 04:14:32;;;;;;;3.30;1.90;;;;;10.30;96697.00;;;;5114052;28;20194;-61
2023/10/02 04:17:10;;;;;;;2.93;2.07;;;;;10.40;96695.00;;;;5114034;28;20202;-61
2023/10/02 04:19:40;;;;;;;1.90;1.80;;;;;10.40;96693.00;;;;5114238;28;20182;-61
2023/10/02 04:22:15;;;;;;;10.23;2.40;;;;;10.40;96694.00;;;;5114073;28;20237;-61
2023/10/02 04:24:51;;;;;;;1.23;1.23;;;;;10.40;96691.00;;;;5112437;28;20193;-61
2023/10/02 04:27:24;;;;;;;2.87;2.17;;;;;10.50;96682.00;;;;5114342;28;20230;-61
2023/10/02 04:32:35;;;;;;;1.53;1.40;;;;;10.40;96689.00;;;;5111444;28;20244;-62
2023/10/02 04:35:03;;;;;;;2.17;1.93;;;;;10.50;96685.00;;;;5112465;28;20201;-62
2023/10/02 04:37:32;;;;;;;5.40;2.00;;;;;10.60;96680.00;;;;5113416;28;20213;-61
2023/10/02 04:40:16;;;;;;;1.13;1.13;;;;;10.60;96683.00;;;;5113571;28;20201;-61
2023/10/02 04:42:57;;;;;;;2.33;2.13;;;;;10.70;96693.00;;;;5113332;28;20214;-61
2023/10/02 04:45:27;;;;;;;10.93;1.67;;;;;10.70;96701.00;;;;5113730;28;20182;-61
2023/10/02 04:47:55;;;;;;;1.17;1.17;;;;;10.70;96694.00;;;;5113365;28;20197;-61
2023/10/02 04:50:39;;;;;;;4.67;2.53;;;;;10.60;96694.00;;;;5111988;28;20229;-61
2023/10/02 04:53:19;;;;;;;5.87;2.03;;;;;10.60;96700.00;;;;5112052;28;20222;-61
2023/10/02 04:55:48;;;;;;;1.93;1.73;;;;;10.60;96687.00;;;;5113143;28;20188;-61
2023/10/02 04:58:19;;;;;;;1.77;1.47;;;;;10.60;96690.00;;;;5113758;28;20194;-61
2023/10/02 05:03:49;;;;;;;7.20;2.20;;;;;10.50;96690.00;;;;5113461;28;20225;-61
2023/10/02 05:06:16;;;;;;;1.50;1.50;;;;;10.50;96691.00;;;;5113118;28;20186;-61
2023/10/02 05:11:26;;;;;;;3.03;1.63;;;;;10.50;96691.00;;;;5112816;28;20226;-61
2023/10/02 05:13:59;;;;;;;2.43;2.10;;;;;10.60;96695.00;;;;5113633;28;20190;-61
2023/10/02 05:16:32;;;;;;;1.30;1.20;;;;;10.60;96676.00;;;;5116989;28;20201;-61
2023/10/02 05:19:00;;;;;;;1.20;1.20;;;;;10.60;96686.00;;;;5116706;28;20209;-62
2023/10/02 05:21:38;;;;;;;2.63;2.00;;;;;10.50;96687.00;;;;5116961;27;20605;-61
2023/10/02 05:24:06;;;;;;;2.07;1.77;;;;;10.50;96699.00;;;;5117011;28;20178;-61
2023/10/02 05:26:36;;;;;;;1.37;1.37;;;;;10.40;96703.00;;;;5115645;28;20194;-62
2023/10/02 05:29:05;;;;;;;1.30;1.20;;;;;10.30;96699.00;;;;5117008;28;20213;-62
2023/10/02 05:31:35;;;;;;;1.53;1.50;;;;;10.30;96696.00;;;;5116958;28;20213;-62
2023/10/02 05:34:13;;;;;;;1.97;1.77;;;;;10.40;96703.00;;;;5116800;28;20178;-62
2023/10/02 05:36:55;;;;;;;1.20;1.20;;;;;10.40;96703.00;;;;5117065;28;20205;-62
2023/10/02 05:39:31;;;;;;;2.97;2.77;;;;;10.40;96699.00;;;;5116939;27;20254;-62
2023/10/02 05:42:05;;;;;;;1.73;1.63;;;;;10.50;96702.00;;;;5116856;28;20242;-62
2023/10/02 05:44:34;;;;;;;2.67;2.47;;;;;10.50;96708.00;;;;5116585;28;20175;-62
2023/10/02 05:47:06;;;;;;;1.67;1.57;;;;;10.50;96712.00;;;;5116886;28;20194;-62
2023/10/02 05:49:36;;;;;;;4.43;2.50;;;;;10.50;96711.00;;;;5116505;28;20186;-62
2023/10/02 05:52:07;;;;;;;2.33;2.13;;;;;10.50;96710.00;;;;5116541;28;20554;-62
2023/10/02 05:54:36;;;;;;;1.90;1.50;;;;;10.60;96710.00;;;;5116659;28;20175;-62
2023/10/02 05:57:12;;;;;;;2.00;1.90;;;;;10.60;96708.00;;;;5116317;28;20253;-62
2023/10/02 05:59:47;;;;;;;1.97;1.83;;;;;10.60;96711.00;;;;5116264;28;20185;-62
2023/10/02 06:02:18;;;;;;;2.97;1.87;;;;;10.60;96716.00;;;;5116197;28;20213;-62
2023/10/02 06:04:48;;;;;;;2.17;2.07;;;;;10.50;96714.00;;;;5116508;28;20186;-62
2023/10/02 06:07:40;;;;;;;2.07;1.97;;;;;10.60;96711.00;;;;5116023;27;20183;-62
2023/10/02 06:10:09;;;;;;;5.50;1.57;;;;;10.60;96715.00;;;;5116163;28;20202;-62
2023/10/02 06:12:42;;;;;;;0.93;0.93;;;;;10.70;96718.00;;;;5115996;28;20338;-62
2023/10/02 06:15:43;;;;;;;2.37;2.10;;;;;10.90;96714.00;;;;5114681;28;20239;-62
2023/10/02 06:18:01;;;;;;;2.00;1.67;;;;;10.90;96709.00;;;;5115898;28;20240;-62
2023/10/02 06:20:29;;;;;;;3.60;2.23;;;;;11.00;96711.00;;;;5116183;28;20182;-62
2023/10/02 06:23:05;;;;;;;1.63;1.53;;;;;11.00;96702.00;;;;5116208;28;20206;-62
2023/10/02 06:25:33;;;;;;;2.67;2.17;;;;;11.20;96713.00;;;;5115505;28;20238;-62
2023/10/02 06:28:19;;;;;;;4.20;3.10;;;;;11.20;96706.00;;;;5116630;28;20186;-62
2023/10/02 06:30:47;;;;;;;2.53;2.03;;;;;11.20;96711.00;;;;5116625;28;20182;-62
2023/10/02 06:33:17;;;;;;;2.90;2.27;;;;;11.20;96715.00;;;;5116585;28;20183;-62
2023/10/02 06:35:45;;;;;;;2.63;2.40;;;;;11.30;96711.00;;;;5116620;28;20598;-60
2023/10/02 06:38:16;;;;;;;2.13;1.93;;;;;11.20;96711.00;;;;5116751;28;20286;-61
2023/10/02 06:40:55;;;;;;;2.13;2.00;;;;;11.30;96715.00;;;;5114887;28;20189;-61
2023/10/02 06:43:29;;;;;;;1.70;1.60;;;;;11.40;96723.00;;;;5116589;28;20189;-61
2023/10/02 06:46:06;;;;;;;2.90;1.77;;;;;11.50;96714.00;;;;5116736;27;20346;-61
2023/10/02 06:48:35;;;;;;;1.87;1.73;;;;;11.60;96715.00;;;;5116402;28;20209;-61
2023/10/02 06:51:04;;;;;;;1.60;1.50;;;;;11.60;96723.00;;;;5116207;28;20248;-61
2023/10/02 06:53:31;;;;;;;1.30;1.30;;;;;11.70;96724.00;;;;5116128;28;20217;-61
2023/10/02 06:56:05;;;;;;;3.13;1.97;;;;;11.70;96713.00;;;;5116158;28;20186;-61
2023/10/02 06:58:46;;;;;;;2.30;2.10;;;;;11.80;96720.00;;;;5115053;28;20725;-61
2023/10/02 07:01:14;;;;;;;4.73;1.83;;;;;11.90;96721.00;;;;5116447;28;20214;-61
2023/10/02 07:03:50;;;;;;;1.57;1.47;;;;;12.10;96725.00;;;;5116397;28;20497;-61
2023/10/02 07:06:19;;;;;;;1.77;1.67;;;;;12.10;96726.00;;;;5116331;27;20606;-61
2023/10/02 07:08:48;;;;;;;1.80;1.67;;;;;12.30;96730.00;;;;5116063;28;20218;-61
2023/10/02 07:11:18;;;;;;;3.63;1.77;;;;;12.40;96728.00;;;;5115391;28;20714;-62
2023/10/02 07:13:56;;;;;;;1.83;1.73;;;;;12.50;96724.00;;;;5115877;27;20265;-61
2023/10/02 07:16:26;;;;;;;2.07;1.63;;;;;12.60;96725.00;;;;5115902;28;20182;-61
2023/10/02 07:18:58;;;;;;;3.43;2.30;;;;;12.70;96723.00;;;;5115942;28;20182;-61
2023/10/02 07:21:30;;;;;;;2.07;1.97;;;;;12.70;96713.00;;;;5115839;28;20210;-61
2023/10/02 07:24:00;;;;;;;2.17;1.50;;;;;12.80;96717.00;;;;5115552;28;20193;-61
2023/10/02 07:29:09;;;;;;;2.33;2.13;;;;;12.90;96720.00;;;;5115781;27;20201;-61
2023/10/02 07:31:36;;;;;;;1.70;1.60;;;;;12.90;96716.00;;;;5115191;28;20229;-61
2023/10/02 07:34:08;;;;;;;1.87;1.77;;;;;12.90;96712.00;;;;5115602;28;20194;-61
2023/10/02 07:36:44;;;;;;;6.23;2.03;;;;;13.00;96706.00;;;;5115027;28;20189;-61
2023/10/02 07:39:35;;;;;;;1.23;1.23;;;;;13.30;96715.00;;;;5114869;28;20178;-61
2023/10/02 07:42:01;;;;;;;1.83;1.73;;;;;13.30;96707.00;;;;5115074;28;20275;-61
2023/10/02 07:44:36;;;;;;;1.53;1.47;;;;;13.50;96710.00;;;;5113212;28;20201;-61
2023/10/02 07:47:10;;;;;;;5.40;3.13;;;;;13.70;96709.00;;;;5114530;28;20257;-62
2023/10/02 07:49:39;;;;;;;3.07;2.80;;;;;13.90;96709.00;;;;5114696;28;20597;-62
2023/10/02 07:52:09;;;;;;;1.87;1.77;;;;;13.90;96706.00;;;;5114471;28;20626;-62
2023/10/02 07:54:45;;;;;;;1.97;1.87;;;;;14.10;96710.00;;;;5114354;28;20190;-62
2023/10/02 07:57:14;;;;;;;3.17;2.60;;;;;14.20;96711.00;;;;5114166;28;20204;-62
2023/10/02 07:59:43;;;;;;;1.63;1.53;;;;;14.40;96713.00;;;;5114150;28;20190;-62
2023/10/02 08:02:23;;;;;;;1.70;1.63;;;;;14.50;96708.00;;;;5114092;27;20218;-62
2023/10/02 08:04:52;;;;;;;3.60;2.80;;;;;14.60;96704.00;;;;5114381;27;20277;-63
2023/10/02 08:07:20;;;;;;;1.63;1.53;;;;;14.70;96700.00;;;;5114286;28;20301;-62
2023/10/02 08:09:48;;;;;;;2.07;1.87;;;;;14.90;96701.00;;;;5114228;28;20547;-62
2023/10/02 08:12:29;;;;;;;1.93;1.83;;;;;15.10;96701.00;;;;5114378;28;20693;-62
2023/10/02 08:14:59;;;;;;;2.10;2.00;;;;;15.20;96703.00;;;;5114109;28;20228;-62
2023/10/02 08:18:00;;;;;;;2.27;2.10;;;;;15.40;96707.00;;;;5114315;28;20217;-63
2023/10/02 08:20:32;;;;;;;2.57;2.37;;;;;15.50;96709.00;;;;5113515;28;20198;-62
2023/10/02 08:23:02;;;;;;;3.40;3.10;;;;;15.70;96702.00;;;;5113756;28;20209;-62
2023/10/02 08:25:33;;;;;;;2.57;2.37;;;;;15.80;96707.00;;;;5113598;28;20190;-62
2023/10/02 08:28:00;;;;;;;1.70;1.60;;;;;16.10;96699.00;;;;5114061;28;20265;-62
2023/10/02 08:30:31;;;;;;;3.47;3.17;;;;;16.30;96702.00;;;;5113557;28;20186;-60
2023/10/02 08:33:05;;;;;;;3.50;1.50;;;;;16.50;96701.00;;;;5111987;28;20221;-60
2023/10/02 08:35:36;;;;;;;3.13;2.83;;;;;16.70;96703.00;;;;5112339;28;20247;-60
2023/10/02 08:38:07;;;;;;;6.97;2.63;;;;;16.80;96705.00;;;;5113662;28;20271;-61
2023/10/02 08:40:39;;;;;;;5.63;3.03;;;;;17.00;96701.00;;;;5112354;28;20272;-62
2023/10/02 08:43:06;;;;;;;4.80;2.00;;;;;17.10;96697.00;;;;5112162;28;20210;-62
2023/10/02 08:45:34;;;;;;;2.00;1.87;;;;;17.20;96707.00;;;;5113846;28;20627;-62
2023/10/02 08:48:07;;;;;;;6.07;2.83;;;;;17.50;96696.00;;;;5114574;28;20186;-62
2023/10/02 08:50:37;;;;;;;11.07;2.83;;;;;17.60;96691.00;;;;5117732;28;20239;-62
2023/10/02 08:53:09;;;;;;;3.00;2.20;;;;;17.80;96697.00;;;;5117986;28;20249;-62
2023/10/02 08:55:45;;;;;;;2.03;1.93;;;;;18.10;96694.00;;;;5117850;28;20178;-62
2023/10/02 08:58:16;;;;;;;2.03;1.93;;;;;18.10;96691.00;;;;5117605;28;20563;-62
2023/10/02 09:01:17;;;;;;;8.57;2.67;;;;;18.20;96687.00;;;;5117993;28;20174;-62
2023/10/02 09:03:49;;;;;;;6.73;2.63;;;;;18.20;96686.00;;;;5117319;28;20249;-62
2023/10/02 09:06:32;;;;;;;3.17;2.80;;;;;18.40;96683.00;;;;5117604;28;20223;-62
2023/10/02 09:11:53;;;;;;;2.60;2.40;;;;;18.80;96694.00;;;;5100570;28;20728;-62
2023/10/02 09:14:22;;;;;;;2.60;2.40;;;;;18.80;96676.00;;;;5117384;28;20202;-63
2023/10/02 09:17:12;;;;;;;5.30;2.57;;;;;18.80;96686.00;;;;5117073;28;20198;-61
2023/10/02 09:19:41;;;;;;;4.03;2.80;;;;;19.00;96684.00;;;;5116013;28;20198;-62
2023/10/02 09:22:16;;;;;;;2.67;2.20;;;;;19.20;96682.00;;;;5115794;28;20222;-62
2023/10/02 09:24:55;;;;;;;3.17;2.27;;;;;19.60;96680.00;;;;5117150;28;20182;-62
2023/10/02 09:27:25;;;;;;;5.83;2.60;;;;;19.70;96676.00;;;;5116953;28;20204;-62
2023/10/02 09:32:47;;;;;;;8.70;2.77;;;;;20.00;96680.00;;;;5117031;28;20253;-62
2023/10/02 09:35:32;;;;;;;2.13;1.93;;;;;20.20;96671.00;;;;5116904;27;20190;-62
2023/10/02 09:38:04;;;;;;;3.27;2.13;;;;;20.30;96670.00;;;;5117017;28;20563;-62
2023/10/02 09:43:21;;;;;;;1.73;1.63;;;;;20.40;96669.00;;;;5115306;28;20618;-62
2023/10/02 09:45:53;;;;;;;2.00;1.80;;;;;20.60;96654.00;;;;5117123;28;20220;-62
2023/10/02 09:51:37;;;;;;;1.73;1.63;;;;;21.10;96655.00;;;;5109177;28;20217;-63
2023/10/02 09:54:21;;;;;;;3.10;2.87;;;;;21.20;96658.00;;;;5117078;28;20178;-63
2023/10/02 09:57:05;;;;;;;2.97;1.77;;;;;21.40;96654.00;;;;5117909;28;20182;-63
2023/10/02 09:59:45;;;;;;;2.87;2.63;;;;;21.40;96654.00;;;;5117144;28;20170;-63
2023/10/02 10:10:48;;;;;;;2.38;1.98;;;;;22.10;96646.00;;;;5116236;28;20560;-63
2023/10/02 10:13:36;;;;;;;2.42;2.22;;;;;22.10;96643.00;;;;5116864;28;20178;-63
2023/10/02 10:16:38;;;;;;;2.53;1.88;;;;;22.30;96641.00;;;;5116504;28;20617;-64
2023/10/02 10:19:31;;;;;;;2.22;1.38;;;;;22.50;96636.00;;;;5113392;28;20316;-62
2023/10/02 10:22:04;;;;;;;3.05;1.90;;;;;22.40;96632.00;;;;5114591;28;20220;-64
2023/10/02 10:24:58;;;;;;;2.05;1.85;;;;;22.60;96624.00;;;;5116350;28;20190;-64
2023/10/02 10:27:58;;;;;;;2.80;1.92;;;;;23.00;96620.00;;;;5116145;28;20189;-61
2023/10/02 10:30:46;;;;;;;4.10;2.92;;;;;23.20;96621.00;;;;5114408;28;20214;-63
2023/10/02 10:33:36;;;;;;;9.85;2.15;;;;;23.20;96613.00;;;;5115694;28;20269;-61
2023/10/02 10:36:13;;;;;;;4.82;3.05;;;;;23.30;96606.00;;;;5115658;28;20227;-64
2023/10/02 10:38:49;;;;;;;4.72;2.53;;;;;23.30;96613.00;;;;5115934;28;20202;-62
2023/10/02 10:41:31;;;;;;;2.42;2.28;;;;;23.50;96611.00;;;;5115549;28;20284;-62
2023/10/02 10:44:06;;;;;;;2.63;1.60;;;;;23.50;96614.00;;;;5115439;28;20254;-62
2023/10/02 10:46:37;;;;;;;2.13;2.03;;;;;23.80;96610.00;;;;5115514;28;20228;-62
2023/10/02 10:49:08;;;;;;;3.60;2.00;;;;;24.10;96609.00;;;;5115463;28;20179;-63
2023/10/02 10:51:37;;;;;;;2.08;1.88;;;;;24.00;96614.00;;;;5115809;28;20245;-62
2023/10/02 10:54:13;;;;;;;3.03;2.20;;;;;24.40;96614.00;;;;5115373;28;20192;-63
2023/10/02 10:56:44;;;;;;;1.33;1.33;;;;;24.40;96614.00;;;;5115340;28;20232;-62
2023/10/02 10:59:32;;;;;;;1.77;1.63;;;;;24.60;96617.00;;;;5115807;27;20222;-63
2023/10/02 11:02:13;;;;;;;4.22;2.83;;;;;24.80;96612.00;;;;5115422;28;20214;-63
2023/10/02 11:04:47;;;;;;;1.73;1.60;;;;;25.00;96609.00;;;;5115531;28;20213;-64
2023/10/02 11:07:22;;;;;;;1.52;1.42;;;;;25.00;96611.00;;;;5115614;28;20257;-64
2023/10/02 11:12:56;;;;;;;1.52;1.42;;;;;25.60;96612.00;;;;5152204;27;20970;-62
2023/10/02 11:18:26;;;;;;;2.67;2.20;;;;;25.70;96605.00;;;;5091602;28;20556;-62
2023/10/02 11:20:57;;;;;;;4.97;2.47;;;;;25.80;96598.00;;;;5090622;28;20260;-63
2023/10/02 11:23:37;;;;;;;6.47;2.05;;;;;25.90;96604.00;;;;5090801;28;20194;-63
2023/10/02 11:26:11;;;;;;;2.75;1.73;;;;;25.80;96604.00;;;;5091105;28;20512;-63
2023/10/02 11:28:39;;;;;;;1.88;1.77;;;;;26.00;96597.00;;;;5087269;28;20602;-63
2023/10/02 11:31:29;;;;;;;1.40;1.30;;;;;26.40;96601.00;;;;5085275;28;20226;-63
2023/10/02 11:34:02;;;;;;;3.55;1.48;;;;;26.50;96600.00;;;;5086043;28;20191;-64
2023/10/02 11:36:33;;;;;;;4.43;2.53;;;;;26.40;96595.00;;;;5087756;28;20567;-64
2023/10/02 11:39:09;;;;;;;2.17;2.05;;;;;26.60;96589.00;;;;5089406;28;20210;-64
2023/10/02 11:41:40;;;;;;;2.65;2.47;;;;;26.80;96581.00;;;;5088550;28;20210;-63
2023/10/02 11:44:12;;;;;;;2.83;2.22;;;;;27.10;96594.00;;;;5088617;28;20205;-64
2023/10/02 11:46:40;;;;;;;4.30;3.03;;;;;27.30;96584.00;;;;5086918;28;20217;-64
2023/10/02 11:49:10;;;;;;;1.80;1.70;;;;;27.40;96577.00;;;;5088945;28;20194;-64
2023/10/02 11:51:38;;;;;;;2.88;2.65;;;;;27.60;96581.00;;;;5086680;28;20244;-64
2023/10/02 11:54:09;;;;;;;3.33;1.65;;;;;27.90;96576.00;;;;5087524;28;20198;-64
2023/10/02 11:56:38;;;;;;;4.22;3.72;;;;;28.20;96579.00;;;;5085354;28;20210;-64
2023/10/02 11:59:06;;;;;;;1.98;1.73;;;;;28.50;96570.00;;;;5088575;28;20248;-64
2023/10/02 12:01:35;;;;;;;2.30;2.10;;;;;28.40;96574.00;;;;5086898;28;20306;-62
2023/10/02 12:04:04;;;;;;;2.80;2.53;;;;;28.10;96572.00;;;;5088319;28;20308;-63
2023/10/02 12:06:33;;;;;;;1.65;1.55;;;;;27.90;96554.00;;;;5088460;28;20241;-63
2023/10/02 12:09:01;;;;;;;3.45;2.72;;;;;28.10;96552.00;;;;5088144;28;20719;-63
2023/10/02 12:11:29;;;;;;;5.50;1.90;;;;;28.60;96549.00;;;;5087701;28;20247;-63
2023/10/02 12:13:57;;;;;;;2.42;1.48;;;;;29.00;96552.00;;;;5087595;28;20195;-63
2023/10/02 12:16:25;;;;;;;6.07;2.28;;;;;29.20;96550.00;;;;5087784;28;20203;-63
2023/10/02 12:18:53;;;;;;;1.95;1.85;;;;;29.60;96555.00;;;;5088090;28;20194;-63
2023/10/02 12:21:22;;;;;;;9.63;1.23;;;;;29.70;96549.00;;;;5087572;28;20215;-63
2023/10/02 12:23:51;;;;;;;2.97;2.47;;;;;29.60;96544.00;;;;5087584;28;20199;-63
2023/10/02 12:26:20;;;;;;;3.38;2.47;;;;;29.70;96537.00;;;;5087750;28;20195;-63
2023/10/02 12:28:49;;;;;;;3.10;2.25;;;;;30.30;96536.00;;;;5079427;28;20252;-63
2023/10/02 12:31:19;;;;;;;1.75;1.65;;;;;30.60;96534.00;;;;5074222;28;20326;-63
2023/10/02 12:33:48;;;;;;;1.70;1.40;;;;;30.60;96530.00;;;;5069074;28;20234;-63
2023/10/02 12:36:17;;;;;;;2.95;2.50;;;;;30.90;96524.00;;;;5072647;28;20211;-63
2023/10/02 12:38:45;;;;;;;1.88;1.75;;;;;31.20;96531.00;;;;5074120;28;20694;-63
2023/10/02 12:41:15;;;;;;;5.85;3.38;;;;;31.30;96527.00;;;;5074181;28;20310;-63
2023/10/02 12:43:44;;;;;;;3.17;1.80;;;;;31.10;96526.00;;;;5073645;28;20191;-63
2023/10/02 12:46:14;;;;;;;1.83;1.58;;;;;31.00;96520.00;;;;5074180;28;20230;-64
2023/10/02 12:48:43;;;;;;;5.32;2.45;;;;;31.30;96521.00;;;;5072152;28;20183;-63
2023/10/02 12:51:11;;;;;;;1.95;1.05;;;;;31.70;96518.00;;;;5074066;28;20694;-63
2023/10/02 12:53:38;;;;;;;2.67;2.45;;;;;32.10;96522.00;;;;5073309;28;20204;-63
2023/10/02 12:56:06;;;;;;;2.60;2.25;;;;;31.80;96509.00;;;;5072280;28;20396;-63
2023/10/02 12:58:36;;;;;;;1.45;1.35;;;;;32.10;96509.00;;;;5073559;28;20226;-63
2023/10/02 13:01:05;;;;;;;1.42;1.33;;;;;32.00;96509.00;;;;5073821;28;20211;-63
2023/10/02 13:03:33;;;;;;;4.30;1.67;;;;;32.50;96505.00;;;;5075861;28;20206;-63
2023/10/02 13:06:03;;;;;;;2.88;2.20;;;;;32.80;96495.00;;;;5075085;28;20199;-63
2023/10/02 13:08:32;;;;;;;2.88;2.00;;;;;33.30;96491.00;;;;5075686;28;20634;-63
2023/10/02 13:11:00;;;;;;;4.85;2.38;;;;;33.80;96487.00;;;;5074970;28;20191;-63
2023/10/02 13:13:28;;;;;;;2.85;2.45;;;;;34.70;96485.00;;;;5075170;28;20219;-62
2023/10/02 13:15:56;;;;;;;4.32;2.97;;;;;35.00;96486.00;;;;5075517;28;20230;-62
2023/10/02 13:18:27;;;;;;;1.80;1.70;;;;;34.60;96479.00;;;;5075370;28;20211;-63
2023/10/02 13:20:57;;;;;;;2.65;2.28;;;;;35.10;96469.00;;;;5075150;28;20184;-67
2023/10/02 13:23:25;;;;;;;3.10;2.13;;;;;35.20;96468.00;;;;5075270;28;20262;-61
2023/10/02 13:25:53;;;;;;;6.35;2.47;;;;;35.30;96466.00;;;;5075392;28;20222;-63